sensor_id;sensor_type;location;lat;lon;timestamp;pressure;altitude;pressure_sealevel;temperature;humidity
67738;BME280;54534;43.612;1.572;2022-07-21T00:01:06;99693.84;;;27.37;40.56
67738;BME280;54534;43.612;1.572;2022-07-21T00:03:32;99695.53;;;27.38;40.59
67738;BME280;54534;43.612;1.572;2022-07-21T00:05:57;99685.59;;;27.39;40.68
67738;BME280;54534;43.612;1.572;2022-07-21T00:08:23;99685.75;;;27.37;40.59
67738;BME280;54534;43.612;1.572;2022-07-21T00:10:48;99690.16;;;27.38;40.51
67738;BME280;54534;43.612;1.572;2022-07-21T00:13:14;99688.44;;;27.37;40.69
67738;BME280;54534;43.612;1.572;2022-07-21T00:15:39;99687.44;;;27.38;40.63
67738;BME280;54534;43.612;1.572;2022-07-21T00:18:05;99683.91;;;27.38;40.53
67738;BME280;54534;43.612;1.572;2022-07-21T00:20:30;99682.03;;;27.38;40.42
67738;BME280;54534;43.612;1.572;2022-07-21T00:22:57;99683.06;;;27.37;40.50
67738;BME280;54534;43.612;1.572;2022-07-21T00:25:22;99681.38;;;27.36;40.59
67738;BME280;54534;43.612;1.572;2022-07-21T00:27:48;99689.31;;;27.38;40.49
67738;BME280;54534;43.612;1.572;2022-07-21T00:30:14;99685.75;;;27.37;40.56
67738;BME280;54534;43.612;1.572;2022-07-21T00:32:40;99684.75;;;27.38;40.53
67738;BME280;54534;43.612;1.572;2022-07-21T00:35:06;99682.91;;;27.39;40.59
67738;BME280;54534;43.612;1.572;2022-07-21T00:37:32;99684.75;;;27.38;40.52
67738;BME280;54534;43.612;1.572;2022-07-21T00:39:58;99678.69;;;27.36;40.83
67738;BME280;54534;43.612;1.572;2022-07-21T00:42:25;99681.38;;;27.36;40.60
67738;BME280;54534;43.612;1.572;2022-07-21T00:44:52;99680.34;;;27.37;40.58
67738;BME280;54534;43.612;1.572;2022-07-21T00:47:27;99685.75;;;27.37;40.45
67738;BME280;54534;43.612;1.572;2022-07-21T00:49:53;99675.97;;;27.36;40.58
67738;BME280;54534;43.612;1.572;2022-07-21T00:52:19;99677.66;;;27.37;40.46
67738;BME280;54534;43.612;1.572;2022-07-21T00:54:44;99679.50;;;27.37;40.54
67738;BME280;54534;43.612;1.572;2022-07-21T00:57:11;99676.81;;;27.37;40.60
67738;BME280;54534;43.612;1.572;2022-07-21T00:59:37;99675.97;;;27.36;40.54
67738;BME280;54534;43.612;1.572;2022-07-21T01:02:03;99679.50;;;27.37;40.60
67738;BME280;54534;43.612;1.572;2022-07-21T01:04:29;99667.19;;;27.34;40.61
67738;BME280;54534;43.612;1.572;2022-07-21T01:06:54;99675.97;;;27.36;40.40
67738;BME280;54534;43.612;1.572;2022-07-21T01:09:20;99671.59;;;27.35;40.73
67738;BME280;54534;43.612;1.572;2022-07-21T01:11:46;99668.03;;;27.35;40.48
67738;BME280;54534;43.612;1.572;2022-07-21T01:14:12;99675.97;;;27.36;40.50
67738;BME280;54534;43.612;1.572;2022-07-21T01:16:39;99675.97;;;27.36;40.53
67738;BME280;54534;43.612;1.572;2022-07-21T01:19:05;99671.41;;;27.37;40.63
67738;BME280;54534;43.612;1.572;2022-07-21T01:21:34;99667.03;;;27.36;40.51
67738;BME280;54534;43.612;1.572;2022-07-21T01:24:01;99668.88;;;27.35;40.47
67738;BME280;54534;43.612;1.572;2022-07-21T01:26:27;99668.88;;;27.35;40.59
67738;BME280;54534;43.612;1.572;2022-07-21T01:28:55;99668.88;;;27.35;40.54
67738;BME280;54534;43.612;1.572;2022-07-21T01:31:20;99668.03;;;27.35;40.61
67738;BME280;54534;43.612;1.572;2022-07-21T01:33:47;99652.88;;;27.34;40.48
67738;BME280;54534;43.612;1.572;2022-07-21T01:36:12;99653.88;;;27.32;40.63
67738;BME280;54534;43.612;1.572;2022-07-21T01:38:38;99658.28;;;27.34;40.64
67738;BME280;54534;43.612;1.572;2022-07-21T01:41:22;99660.13;;;27.33;40.67
67738;BME280;54534;43.612;1.572;2022-07-21T01:43:54;99656.56;;;27.32;40.59
67738;BME280;54534;43.612;1.572;2022-07-21T01:46:20;99660.97;;;27.34;40.40
67738;BME280;54534;43.612;1.572;2022-07-21T01:48:45;99654.72;;;27.33;40.59
67738;BME280;54534;43.612;1.572;2022-07-21T01:51:11;99653.88;;;27.32;40.61
67738;BME280;54534;43.612;1.572;2022-07-21T01:53:37;99647.63;;;27.32;40.55
67738;BME280;54534;43.612;1.572;2022-07-21T01:56:04;99651.16;;;27.32;40.65
67738;BME280;54534;43.612;1.572;2022-07-21T01:58:30;99645.78;;;27.32;40.40
67738;BME280;54534;43.612;1.572;2022-07-21T02:00:56;99644.91;;;27.32;40.45
67738;BME280;54534;43.612;1.572;2022-07-21T02:03:21;99639.72;;;27.30;40.46
67738;BME280;54534;43.612;1.572;2022-07-21T02:05:47;99635.16;;;27.31;40.56
67738;BME280;54534;43.612;1.572;2022-07-21T02:08:12;99636.16;;;27.30;40.71
67738;BME280;54534;43.612;1.572;2022-07-21T02:10:37;99644.25;;;27.30;40.47
67738;BME280;54534;43.612;1.572;2022-07-21T02:13:03;99635.31;;;27.29;40.66
67738;BME280;54534;43.612;1.572;2022-07-21T02:15:29;99633.47;;;27.30;40.44
67738;BME280;54534;43.612;1.572;2022-07-21T02:17:56;99630.09;;;27.28;40.61
67738;BME280;54534;43.612;1.572;2022-07-21T02:20:21;99629.91;;;27.29;40.64
67738;BME280;54534;43.612;1.572;2022-07-21T02:22:47;99630.94;;;27.28;40.54
67738;BME280;54534;43.612;1.572;2022-07-21T02:25:14;99631.75;;;27.29;40.25
67738;BME280;54534;43.612;1.572;2022-07-21T02:27:40;99625.69;;;27.27;40.57
67738;BME280;54534;43.612;1.572;2022-07-21T02:30:06;99628.56;;;27.25;40.57
67738;BME280;54534;43.612;1.572;2022-07-21T02:32:31;99631.28;;;27.25;40.45
67738;BME280;54534;43.612;1.572;2022-07-21T02:34:57;99631.28;;;27.25;40.53
67738;BME280;54534;43.612;1.572;2022-07-21T02:37:22;99616.94;;;27.25;40.49
67738;BME280;54534;43.612;1.572;2022-07-21T02:39:48;99625.03;;;27.25;40.16
67738;BME280;54534;43.612;1.572;2022-07-21T02:42:14;99625.03;;;27.25;40.63
67738;BME280;54534;43.612;1.572;2022-07-21T02:44:39;99625.03;;;27.25;40.27
67738;BME280;54534;43.612;1.572;2022-07-21T02:47:05;99625.22;;;27.23;40.41
67738;BME280;54534;43.612;1.572;2022-07-21T02:49:30;99618.78;;;27.24;40.36
67738;BME280;54534;43.612;1.572;2022-07-21T02:51:55;99616.28;;;27.23;40.40
67738;BME280;54534;43.612;1.572;2022-07-21T02:54:21;99625.22;;;27.23;40.40
67738;BME280;54534;43.612;1.572;2022-07-21T02:56:46;99623.50;;;27.22;40.45
67738;BME280;54534;43.612;1.572;2022-07-21T02:59:12;99625.22;;;27.23;40.43
67738;BME280;54534;43.612;1.572;2022-07-21T03:01:37;99624.53;;;27.21;40.42
67738;BME280;54534;43.612;1.572;2022-07-21T03:04:02;99621.81;;;27.21;40.51
67738;BME280;54534;43.612;1.572;2022-07-21T03:06:28;99620.16;;;27.20;40.41
67738;BME280;54534;43.612;1.572;2022-07-21T03:08:53;99615.59;;;27.20;40.33
67738;BME280;54534;43.612;1.572;2022-07-21T03:11:18;99619.31;;;27.19;40.50
67738;BME280;54534;43.612;1.572;2022-07-21T03:13:44;99622.00;;;27.19;40.62
67738;BME280;54534;43.612;1.572;2022-07-21T03:16:09;99615.75;;;27.19;40.54
67738;BME280;54534;43.612;1.572;2022-07-21T03:18:35;99618.47;;;27.19;40.50
67738;BME280;54534;43.612;1.572;2022-07-21T03:21:00;99618.78;;;27.16;40.68
67738;BME280;54534;43.612;1.572;2022-07-21T03:23:26;99619.47;;;27.18;40.61
67738;BME280;54534;43.612;1.572;2022-07-21T03:25:51;99622.34;;;27.16;40.54
67738;BME280;54534;43.612;1.572;2022-07-21T03:28:17;99629.44;;;27.17;40.56
67738;BME280;54534;43.612;1.572;2022-07-21T03:30:42;99636.69;;;27.17;40.54
67738;BME280;54534;43.612;1.572;2022-07-21T03:33:08;99627.75;;;27.16;40.60
67738;BME280;54534;43.612;1.572;2022-07-21T03:35:34;99633.13;;;27.16;40.47
67738;BME280;54534;43.612;1.572;2022-07-21T03:38:01;99626.88;;;27.16;40.44
67738;BME280;54534;43.612;1.572;2022-07-21T03:40:30;99636.84;;;27.15;40.44
67738;BME280;54534;43.612;1.572;2022-07-21T03:42:59;99632.47;;;27.14;40.45
67738;BME280;54534;43.612;1.572;2022-07-21T03:45:26;99630.63;;;27.15;40.51
67738;BME280;54534;43.612;1.572;2022-07-21T03:47:55;99633.47;;;27.13;40.57
67738;BME280;54534;43.612;1.572;2022-07-21T03:50:20;99638.88;;;27.13;40.62
67738;BME280;54534;43.612;1.572;2022-07-21T03:52:46;99636.16;;;27.13;40.65
67738;BME280;54534;43.612;1.572;2022-07-21T03:55:12;99630.91;;;27.12;40.39
67738;BME280;54534;43.612;1.572;2022-07-21T03:57:45;99633.47;;;27.13;40.57
67738;BME280;54534;43.612;1.572;2022-07-21T04:00:14;99646.09;;;27.13;40.66
67738;BME280;54534;43.612;1.572;2022-07-21T04:02:40;99639.03;;;27.12;40.39
67738;BME280;54534;43.612;1.572;2022-07-21T04:05:13;99642.56;;;27.12;40.49
67738;BME280;54534;43.612;1.572;2022-07-21T04:07:41;99645.25;;;27.12;40.57
67738;BME280;54534;43.612;1.572;2022-07-21T04:10:09;99647.13;;;27.12;40.50
67738;BME280;54534;43.612;1.572;2022-07-21T04:12:35;99646.25;;;27.11;40.47
67738;BME280;54534;43.612;1.572;2022-07-21T04:15:01;99648.13;;;27.10;40.58
67738;BME280;54534;43.612;1.572;2022-07-21T04:17:26;99656.22;;;27.10;40.44
67738;BME280;54534;43.612;1.572;2022-07-21T04:19:51;99648.28;;;27.09;40.55
67738;BME280;54534;43.612;1.572;2022-07-21T04:22:17;99653.69;;;27.09;40.59
67738;BME280;54534;43.612;1.572;2022-07-21T04:24:42;99644.75;;;27.08;40.50
67738;BME280;54534;43.612;1.572;2022-07-21T04:27:08;99649.28;;;27.08;40.60
67738;BME280;54534;43.612;1.572;2022-07-21T04:29:33;99645.75;;;27.07;40.61
67738;BME280;54534;43.612;1.572;2022-07-21T04:31:59;99651.16;;;27.07;40.64
67738;BME280;54534;43.612;1.572;2022-07-21T04:34:24;99653.03;;;27.07;40.62
67738;BME280;54534;43.612;1.572;2022-07-21T04:36:50;99648.63;;;27.06;40.68
67738;BME280;54534;43.612;1.572;2022-07-21T04:39:15;99648.63;;;27.06;40.62
67738;BME280;54534;43.612;1.572;2022-07-21T04:41:41;99656.06;;;27.04;40.44
67738;BME280;54534;43.612;1.572;2022-07-21T04:44:06;99651.50;;;26.87;40.29
67738;BME280;54534;43.612;1.572;2022-07-21T04:46:31;99656.38;;;26.67;40.89
67738;BME280;54534;43.612;1.572;2022-07-21T04:48:57;99658.97;;;26.42;41.05
67738;BME280;54534;43.612;1.572;2022-07-21T04:51:22;99652.38;;;26.19;41.66
67738;BME280;54534;43.612;1.572;2022-07-21T04:53:48;99652.78;;;25.98;42.16
67738;BME280;54534;43.612;1.572;2022-07-21T04:56:13;99649.47;;;25.77;42.01
67738;BME280;54534;43.612;1.572;2022-07-21T04:58:38;99651.38;;;25.59;42.44
67738;BME280;54534;43.612;1.572;2022-07-21T05:01:04;99653.13;;;25.41;43.12
67738;BME280;54534;43.612;1.572;2022-07-21T05:03:29;99660.09;;;25.26;43.45
67738;BME280;54534;43.612;1.572;2022-07-21T05:05:55;99662.16;;;25.14;43.56
67738;BME280;54534;43.612;1.572;2022-07-21T05:08:20;99655.34;;;25.01;44.23
67738;BME280;54534;43.612;1.572;2022-07-21T05:10:45;99659.94;;;24.91;44.02
67738;BME280;54534;43.612;1.572;2022-07-21T05:13:11;99663.56;;;24.81;44.30
67738;BME280;54534;43.612;1.572;2022-07-21T05:15:36;99659.09;;;24.72;44.72
67738;BME280;54534;43.612;1.572;2022-07-21T05:18:02;99663.41;;;24.64;44.89
67738;BME280;54534;43.612;1.572;2022-07-21T05:20:27;99657.94;;;24.56;45.22
67738;BME280;54534;43.612;1.572;2022-07-21T05:22:53;99652.16;;;24.51;45.40
67738;BME280;54534;43.612;1.572;2022-07-21T05:25:18;99663.22;;;24.48;45.34
67738;BME280;54534;43.612;1.572;2022-07-21T05:27:43;99664.66;;;24.42;45.70
67738;BME280;54534;43.612;1.572;2022-07-21T05:30:10;99673.06;;;24.39;45.87
67738;BME280;54534;43.612;1.572;2022-07-21T05:32:35;99668.97;;;24.35;45.94
67738;BME280;54534;43.612;1.572;2022-07-21T05:35:01;99672.66;;;24.33;46.05
67738;BME280;54534;43.612;1.572;2022-07-21T05:37:26;99668.56;;;24.29;46.24
67738;BME280;54534;43.612;1.572;2022-07-21T05:39:53;99673.38;;;24.26;46.41
67738;BME280;54534;43.612;1.572;2022-07-21T05:42:18;99668.13;;;24.24;46.42
67738;BME280;54534;43.612;1.572;2022-07-21T05:44:43;99666.47;;;24.23;46.51
67738;BME280;54534;43.612;1.572;2022-07-21T05:47:09;99675.50;;;24.22;46.72
67738;BME280;54534;43.612;1.572;2022-07-21T05:49:34;99670.28;;;24.20;47.15
67738;BME280;54534;43.612;1.572;2022-07-21T05:52:00;99676.66;;;24.19;47.36
67738;BME280;54534;43.612;1.572;2022-07-21T05:54:25;99679.34;;;24.19;47.08
67738;BME280;54534;43.612;1.572;2022-07-21T05:56:50;99673.13;;;24.19;47.08
67738;BME280;54534;43.612;1.572;2022-07-21T05:59:16;99675.41;;;24.14;47.36
67738;BME280;54534;43.612;1.572;2022-07-21T06:01:41;99672.03;;;24.11;47.50
67738;BME280;54534;43.612;1.572;2022-07-21T06:04:06;99680.09;;;24.11;47.58
67738;BME280;54534;43.612;1.572;2022-07-21T06:06:32;99681.91;;;24.11;47.52
67738;BME280;54534;43.612;1.572;2022-07-21T06:08:58;99681.91;;;24.11;47.83
67738;BME280;54534;43.612;1.572;2022-07-21T06:11:24;99674.84;;;24.10;47.90
67738;BME280;54534;43.612;1.572;2022-07-21T06:13:49;99674.03;;;24.09;47.76
67738;BME280;54534;43.612;1.572;2022-07-21T06:16:15;99678.53;;;24.09;47.91
67738;BME280;54534;43.612;1.572;2022-07-21T06:18:40;99680.38;;;24.08;47.83
67738;BME280;54534;43.612;1.572;2022-07-21T06:21:06;99681.69;;;24.04;47.73
67738;BME280;54534;43.612;1.572;2022-07-21T06:23:32;99688.88;;;24.04;47.73
67738;BME280;54534;43.612;1.572;2022-07-21T06:25:57;99684.38;;;24.04;47.87
67738;BME280;54534;43.612;1.572;2022-07-21T06:28:23;99682.66;;;24.03;48.12
67738;BME280;54534;43.612;1.572;2022-07-21T06:30:49;99691.41;;;24.05;48.10
67738;BME280;54534;43.612;1.572;2022-07-21T06:33:15;99686.72;;;24.07;48.22
67738;BME280;54534;43.612;1.572;2022-07-21T06:35:42;99686.72;;;24.07;48.17
67738;BME280;54534;43.612;1.572;2022-07-21T06:38:07;99680.38;;;24.08;48.18
67738;BME280;54534;43.612;1.572;2022-07-21T06:40:32;99683.75;;;24.10;48.25
67738;BME280;54534;43.612;1.572;2022-07-21T06:42:58;99684.59;;;24.11;48.14
67738;BME280;54534;43.612;1.572;2022-07-21T06:45:24;99684.78;;;24.09;48.18
67738;BME280;54534;43.612;1.572;2022-07-21T06:48:07;99681.78;;;24.13;48.12
67738;BME280;54534;43.612;1.572;2022-07-21T06:50:34;99681.34;;;24.17;48.27
67738;BME280;54534;43.612;1.572;2022-07-21T06:53:00;99680.31;;;24.18;48.43
67738;BME280;54534;43.612;1.572;2022-07-21T06:55:26;99685.41;;;24.21;48.41
67738;BME280;54534;43.612;1.572;2022-07-21T06:57:51;99687.09;;;24.22;48.14
67738;BME280;54534;43.612;1.572;2022-07-21T07:00:17;99685.97;;;24.25;48.48
67738;BME280;54534;43.612;1.572;2022-07-21T07:02:42;99678.63;;;24.27;48.52
67738;BME280;54534;43.612;1.572;2022-07-21T07:05:08;99687.63;;;24.36;48.40
67738;BME280;54534;43.612;1.572;2022-07-21T07:07:34;99688.16;;;24.40;48.19
67738;BME280;54534;43.612;1.572;2022-07-21T07:10:00;99685.03;;;24.44;48.25
67738;BME280;54534;43.612;1.572;2022-07-21T07:12:27;99678.38;;;24.49;48.55
67738;BME280;54534;43.612;1.572;2022-07-21T07:14:53;99680.44;;;24.55;48.22
67738;BME280;54534;43.612;1.572;2022-07-21T07:17:18;99671.63;;;24.63;48.25
67738;BME280;54534;43.612;1.572;2022-07-21T07:19:44;99671.69;;;24.71;48.08
67738;BME280;54534;43.612;1.572;2022-07-21T07:22:10;99672.63;;;24.80;47.93
67738;BME280;54534;43.612;1.572;2022-07-21T07:24:35;99668.31;;;24.87;47.80
67738;BME280;54534;43.612;1.572;2022-07-21T07:27:01;99666.56;;;24.96;47.54
67738;BME280;54534;43.612;1.572;2022-07-21T07:29:26;99668.50;;;25.04;47.49
67738;BME280;54534;43.612;1.572;2022-07-21T07:31:54;99662.34;;;25.12;47.27
67738;BME280;54534;43.612;1.572;2022-07-21T07:34:19;99658.19;;;25.18;46.75
67738;BME280;54534;43.612;1.572;2022-07-21T07:36:45;99669.16;;;25.25;46.66
67738;BME280;54534;43.612;1.572;2022-07-21T07:39:10;99668.53;;;25.31;46.48
67738;BME280;54534;43.612;1.572;2022-07-21T07:41:36;99668.91;;;25.36;46.33
67738;BME280;54534;43.612;1.572;2022-07-21T07:44:01;99659.34;;;25.42;46.58
67738;BME280;54534;43.612;1.572;2022-07-21T07:46:27;99671.50;;;25.46;46.24
67738;BME280;54534;43.612;1.572;2022-07-21T07:48:52;99657.53;;;25.51;46.10
67738;BME280;54534;43.612;1.572;2022-07-21T07:51:18;99664.31;;;25.55;45.78
67738;BME280;54534;43.612;1.572;2022-07-21T07:53:43;99660.28;;;25.59;45.82
67738;BME280;54534;43.612;1.572;2022-07-21T07:56:09;99653.59;;;25.63;45.67
67738;BME280;54534;43.612;1.572;2022-07-21T07:58:34;99653.13;;;25.68;45.85
67738;BME280;54534;43.612;1.572;2022-07-21T08:01:01;99655.31;;;25.73;45.42
67738;BME280;54534;43.612;1.572;2022-07-21T08:03:27;99650.50;;;25.76;45.61
67738;BME280;54534;43.612;1.572;2022-07-21T08:05:54;99649.34;;;25.79;45.32
67738;BME280;54534;43.612;1.572;2022-07-21T08:08:20;99650.88;;;25.82;45.44
67738;BME280;54534;43.612;1.572;2022-07-21T08:10:46;99645.84;;;25.87;45.37
67738;BME280;54534;43.612;1.572;2022-07-21T08:13:14;99649.22;;;25.89;44.96
67738;BME280;54534;43.612;1.572;2022-07-21T08:15:41;99648.03;;;25.92;45.36
67738;BME280;54534;43.612;1.572;2022-07-21T08:18:07;99646.69;;;25.96;44.92
67738;BME280;54534;43.612;1.572;2022-07-21T08:20:33;99636.63;;;25.98;45.20
67738;BME280;54534;43.612;1.572;2022-07-21T08:22:59;99632.59;;;26.02;45.18
67738;BME280;54534;43.612;1.572;2022-07-21T08:25:24;99635.97;;;26.04;45.04
67738;BME280;54534;43.612;1.572;2022-07-21T08:27:50;99635.63;;;26.07;44.94
67738;BME280;54534;43.612;1.572;2022-07-21T08:30:15;99633.63;;;26.09;44.72
67738;BME280;54534;43.612;1.572;2022-07-21T08:32:40;99627.91;;;26.13;45.05
67738;BME280;54534;43.612;1.572;2022-07-21T08:35:06;99627.59;;;26.16;45.03
67738;BME280;54534;43.612;1.572;2022-07-21T08:37:35;99630.94;;;26.18;44.64
67738;BME280;54534;43.612;1.572;2022-07-21T08:40:02;99632.66;;;26.19;44.51
67738;BME280;54534;43.612;1.572;2022-07-21T08:42:29;99628.78;;;26.21;44.40
67738;BME280;54534;43.612;1.572;2022-07-21T08:44:54;99628.59;;;26.23;44.38
67738;BME280;54534;43.612;1.572;2022-07-21T08:47:20;99617.69;;;26.25;43.97
67738;BME280;54534;43.612;1.572;2022-07-21T08:49:46;99630.81;;;26.28;44.17
67738;BME280;54534;43.612;1.572;2022-07-21T08:52:11;99631.50;;;26.30;43.92
67738;BME280;54534;43.612;1.572;2022-07-21T08:54:37;99625.94;;;26.31;43.99
67738;BME280;54534;43.612;1.572;2022-07-21T08:57:03;99623.91;;;26.33;44.12
67738;BME280;54534;43.612;1.572;2022-07-21T08:59:29;99627.28;;;26.36;43.95
67738;BME280;54534;43.612;1.572;2022-07-21T09:01:54;99622.75;;;26.36;43.60
67738;BME280;54534;43.612;1.572;2022-07-21T09:07:03;99625.97;;;26.40;43.79
67738;BME280;54534;43.612;1.572;2022-07-21T09:09:31;99630.19;;;26.42;43.42
67738;BME280;54534;43.612;1.572;2022-07-21T09:11:57;99617.56;;;26.43;43.61
67738;BME280;54534;43.612;1.572;2022-07-21T09:14:30;99611.88;;;26.46;43.55
67738;BME280;54534;43.612;1.572;2022-07-21T09:16:58;99615.22;;;26.48;43.60
67738;BME280;54534;43.612;1.572;2022-07-21T09:19:50;99615.91;;;26.50;43.16
67738;BME280;54534;43.612;1.572;2022-07-21T09:22:17;99612.22;;;26.51;43.29
67738;BME280;54534;43.612;1.572;2022-07-21T09:24:52;99613.72;;;26.54;43.48
67738;BME280;54534;43.612;1.572;2022-07-21T09:27:23;99604.59;;;26.55;43.34
67738;BME280;54534;43.612;1.572;2022-07-21T09:29:52;99607.16;;;26.57;43.44
67738;BME280;54534;43.612;1.572;2022-07-21T09:35:17;99613.03;;;26.60;43.45
67738;BME280;54534;43.612;1.572;2022-07-21T09:37:45;99606.47;;;26.63;43.39
67738;BME280;54534;43.612;1.572;2022-07-21T09:40:13;99605.47;;;26.64;43.32
67738;BME280;54534;43.612;1.572;2022-07-21T09:42:41;99608.84;;;26.66;43.12
67738;BME280;54534;43.612;1.572;2022-07-21T09:45:09;99607.84;;;26.67;42.98
67738;BME280;54534;43.612;1.572;2022-07-21T09:47:34;99607.66;;;26.69;43.07
67738;BME280;54534;43.612;1.572;2022-07-21T09:50:03;99607.47;;;26.70;42.95
67738;BME280;54534;43.612;1.572;2022-07-21T09:52:32;99613.56;;;26.72;42.81
67738;BME280;54534;43.612;1.572;2022-07-21T09:55:04;99607.16;;;26.73;42.87
67738;BME280;54534;43.612;1.572;2022-07-21T09:57:30;99608.66;;;26.76;42.97
67738;BME280;54534;43.612;1.572;2022-07-21T09:59:56;99606.81;;;26.76;42.97
67738;BME280;54534;43.612;1.572;2022-07-21T10:02:28;99603.94;;;26.78;42.93
67738;BME280;54534;43.612;1.572;2022-07-21T10:05:11;99598.38;;;26.80;42.83
67738;BME280;54534;43.612;1.572;2022-07-21T10:07:46;99598.22;;;26.81;42.83
67738;BME280;54534;43.612;1.572;2022-07-21T10:10:12;99598.06;;;26.83;42.99
67738;BME280;54534;43.612;1.572;2022-07-21T10:12:39;99595.34;;;26.83;43.07
67738;BME280;54534;43.612;1.572;2022-07-21T10:15:05;99595.03;;;26.86;42.69
67738;BME280;54534;43.612;1.572;2022-07-21T10:17:30;99599.38;;;26.87;42.84
67738;BME280;54534;43.612;1.572;2022-07-21T10:20:03;99593.84;;;26.88;42.67
67738;BME280;54534;43.612;1.572;2022-07-21T10:25:23;99587.09;;;26.93;42.76
67738;BME280;54534;43.612;1.572;2022-07-21T10:28:21;99592.16;;;26.96;42.84
67738;BME280;54534;43.612;1.572;2022-07-21T10:30:53;99588.59;;;26.95;42.76
67738;BME280;54534;43.612;1.572;2022-07-21T10:36:08;99589.13;;;26.99;42.82
67738;BME280;54534;43.612;1.572;2022-07-21T10:38:35;99597.03;;;27.01;42.65
67738;BME280;54534;43.612;1.572;2022-07-21T10:41:04;99590.63;;;27.02;42.64
67738;BME280;54534;43.612;1.572;2022-07-21T10:45:56;99576.78;;;27.05;42.38
67738;BME280;54534;43.612;1.572;2022-07-21T10:51:10;99577.47;;;27.07;42.52
67738;BME280;54534;43.612;1.572;2022-07-21T10:53:37;99575.59;;;27.07;42.56
67738;BME280;54534;43.612;1.572;2022-07-21T10:56:03;99575.44;;;27.09;42.48
67738;BME280;54534;43.612;1.572;2022-07-21T10:58:29;99574.41;;;27.10;42.73
67738;BME280;54534;43.612;1.572;2022-07-21T11:00:56;99575.25;;;27.10;42.60
67738;BME280;54534;43.612;1.572;2022-07-21T11:03:30;99567.16;;;27.10;42.49
67738;BME280;54534;43.612;1.572;2022-07-21T11:08:45;99559.91;;;27.11;42.56
67738;BME280;54534;43.612;1.572;2022-07-21T11:14:05;99551.63;;;27.13;42.51
67738;BME280;54534;43.612;1.572;2022-07-21T11:21:54;99542.56;;;27.14;42.41
67738;BME280;54534;43.612;1.572;2022-07-21T11:24:24;99530.03;;;27.13;42.49
67738;BME280;54534;43.612;1.572;2022-07-21T11:27:01;99529.06;;;27.14;42.42
67738;BME280;54534;43.612;1.572;2022-07-21T11:29:28;99528.06;;;27.15;42.50
67738;BME280;54534;43.612;1.572;2022-07-21T11:31:54;99519.97;;;27.15;42.59
67738;BME280;54534;43.612;1.572;2022-07-21T11:34:22;99527.03;;;27.16;42.72
67738;BME280;54534;43.612;1.572;2022-07-21T11:36:57;99517.06;;;27.16;42.40
67738;BME280;54534;43.612;1.572;2022-07-21T11:39:23;99516.88;;;27.18;42.54
67738;BME280;54534;43.612;1.572;2022-07-21T11:41:49;99508.78;;;27.18;42.56
67738;BME280;54534;43.612;1.572;2022-07-21T11:44:24;99501.38;;;27.20;42.49
67738;BME280;54534;43.612;1.572;2022-07-21T11:46:57;99494.13;;;27.20;42.33
67738;BME280;54534;43.612;1.572;2022-07-21T11:49:24;99492.44;;;27.19;42.52
67738;BME280;54534;43.612;1.572;2022-07-21T11:51:53;99490.59;;;27.20;42.68
67738;BME280;54534;43.612;1.572;2022-07-21T11:57:10;99484.16;;;27.21;42.57
67738;BME280;54534;43.612;1.572;2022-07-21T11:59:37;99483.34;;;27.20;42.68
67738;BME280;54534;43.612;1.572;2022-07-21T12:02:08;99477.75;;;27.22;42.44
67738;BME280;54534;43.612;1.572;2022-07-21T12:04:40;99482.97;;;27.24;42.63
67738;BME280;54534;43.612;1.572;2022-07-21T12:09:47;99464.06;;;27.24;42.28
67738;BME280;54534;43.612;1.572;2022-07-21T12:12:13;99460.38;;;27.25;42.49
67738;BME280;54534;43.612;1.572;2022-07-21T12:14:48;99453.13;;;27.25;42.53
67738;BME280;54534;43.612;1.572;2022-07-21T12:17:31;99452.94;;;27.27;42.46
67738;BME280;54534;43.612;1.572;2022-07-21T12:19:57;99454.63;;;27.28;42.50
67738;BME280;54534;43.612;1.572;2022-07-21T12:22:43;99449.88;;;27.30;42.44
67738;BME280;54534;43.612;1.572;2022-07-21T12:25:10;99441.78;;;27.30;42.47
67738;BME280;54534;43.612;1.572;2022-07-21T12:27:38;99443.47;;;27.31;42.52
67738;BME280;54534;43.612;1.572;2022-07-21T12:30:06;99436.19;;;27.31;42.39
67738;BME280;54534;43.612;1.572;2022-07-21T12:32:48;99430.81;;;27.31;42.52
67738;BME280;54534;43.612;1.572;2022-07-21T12:40:21;99423.38;;;27.34;42.49
67738;BME280;54534;43.612;1.572;2022-07-21T12:42:47;99420.50;;;27.35;42.47
67738;BME280;54534;43.612;1.572;2022-07-21T12:45:17;99423.19;;;27.35;42.46
67738;BME280;54534;43.612;1.572;2022-07-21T12:50:32;99413.06;;;27.37;42.36
67738;BME280;54534;43.612;1.572;2022-07-21T12:52:58;99411.22;;;27.38;42.47
67738;BME280;54534;43.612;1.572;2022-07-21T12:55:24;99407.66;;;27.37;42.47
67738;BME280;54534;43.612;1.572;2022-07-21T12:57:49;99410.19;;;27.39;42.60
67738;BME280;54534;43.612;1.572;2022-07-21T13:00:14;99411.22;;;27.38;42.48
67738;BME280;54534;43.612;1.572;2022-07-21T13:02:53;99401.91;;;27.40;42.47
67738;BME280;54534;43.612;1.572;2022-07-21T13:05:19;99395.50;;;27.41;42.46
67738;BME280;54534;43.612;1.572;2022-07-21T13:07:45;99406.31;;;27.41;42.38
67738;BME280;54534;43.612;1.572;2022-07-21T13:10:11;99399.88;;;27.42;42.31
67738;BME280;54534;43.612;1.572;2022-07-21T13:12:37;99393.63;;;27.42;42.60
67738;BME280;54534;43.612;1.572;2022-07-21T13:15:03;99396.16;;;27.43;42.37
67738;BME280;54534;43.612;1.572;2022-07-21T13:17:30;99389.91;;;27.43;42.63
67738;BME280;54534;43.612;1.572;2022-07-21T13:19:55;99389.72;;;27.45;42.48
67738;BME280;54534;43.612;1.572;2022-07-21T13:22:21;99390.56;;;27.45;42.37
67738;BME280;54534;43.612;1.572;2022-07-21T13:24:46;99390.41;;;27.47;42.44
67738;BME280;54534;43.612;1.572;2022-07-21T13:27:12;99390.41;;;27.47;42.53
67738;BME280;54534;43.612;1.572;2022-07-21T13:29:37;99397.47;;;27.48;42.41
67738;BME280;54534;43.612;1.572;2022-07-21T13:32:03;99389.38;;;27.48;42.37
67738;BME280;54534;43.612;1.572;2022-07-21T13:34:28;99389.22;;;27.49;42.50
67738;BME280;54534;43.612;1.572;2022-07-21T13:36:54;99382.97;;;27.49;42.36
67738;BME280;54534;43.612;1.572;2022-07-21T13:39:19;99390.03;;;27.50;42.31